sensor_id;sensor_type;location;lat;lon;timestamp;P1;durP1;ratioP1;P2;durP2;ratioP2
553;SDS011;59;48.778;9.156;2022-08-01T00:00:39;3.50;;;2.60;;
553;SDS011;59;48.778;9.156;2022-08-01T00:03:05;4.37;;;2.80;;
553;SDS011;59;48.778;9.156;2022-08-01T00:05:32;3.33;;;2.93;;
553;SDS011;59;48.778;9.156;2022-08-01T00:07:58;3.70;;;3.33;;
553;SDS011;59;48.778;9.156;2022-08-01T00:10:24;3.40;;;2.93;;
553;SDS011;59;48.778;9.156;2022-08-01T00:12:50;3.70;;;3.50;;
553;SDS011;59;48.778;9.156;2022-08-01T00:15:18;3.00;;;2.80;;
553;SDS011;59;48.778;9.156;2022-08-01T00:17:44;3.90;;;2.93;;
553;SDS011;59;48.778;9.156;2022-08-01T00:20:12;3.63;;;3.03;;
553;SDS011;59;48.778;9.156;2022-08-01T00:22:39;3.37;;;3.17;;
553;SDS011;59;48.778;9.156;2022-08-01T00:25:05;3.43;;;3.10;;
553;SDS011;59;48.778;9.156;2022-08-01T00:27:31;3.03;;;2.83;;
553;SDS011;59;48.778;9.156;2022-08-01T00:29:58;4.20;;;2.87;;
553;SDS011;59;48.778;9.156;2022-08-01T00:32:24;3.17;;;3.00;;
553;SDS011;59;48.778;9.156;2022-08-01T00:34:50;3.00;;;2.80;;
553;SDS011;59;48.778;9.156;2022-08-01T00:37:15;3.57;;;3.27;;
553;SDS011;59;48.778;9.156;2022-08-01T00:39:41;3.10;;;2.80;;
553;SDS011;59;48.778;9.156;2022-08-01T00:42:08;4.13;;;3.43;;
553;SDS011;59;48.778;9.156;2022-08-01T00:44:36;3.30;;;3.00;;
553;SDS011;59;48.778;9.156;2022-08-01T00:47:03;3.07;;;2.83;;
553;SDS011;59;48.778;9.156;2022-08-01T00:49:29;3.43;;;3.30;;
553;SDS011;59;48.778;9.156;2022-08-01T00:51:56;4.13;;;3.20;;
553;SDS011;59;48.778;9.156;2022-08-01T00:54:23;3.13;;;2.93;;
553;SDS011;59;48.778;9.156;2022-08-01T00:56:51;3.47;;;3.07;;
553;SDS011;59;48.778;9.156;2022-08-01T00:59:18;3.60;;;3.40;;
553;SDS011;59;48.778;9.156;2022-08-01T01:01:47;5.83;;;3.60;;
553;SDS011;59;48.778;9.156;2022-08-01T01:04:15;4.33;;;3.10;;
553;SDS011;59;48.778;9.156;2022-08-01T01:06:58;4.53;;;3.60;;
553;SDS011;59;48.778;9.156;2022-08-01T01:12:30;3.20;;;3.03;;
553;SDS011;59;48.778;9.156;2022-08-01T01:20:49;3.40;;;3.30;;
553;SDS011;59;48.778;9.156;2022-08-01T01:26:21;3.30;;;3.03;;
553;SDS011;59;48.778;9.156;2022-08-01T01:31:36;4.03;;;3.20;;
553;SDS011;59;48.778;9.156;2022-08-01T01:34:07;3.53;;;3.33;;
553;SDS011;59;48.778;9.156;2022-08-01T01:36:35;3.90;;;3.10;;
553;SDS011;59;48.778;9.156;2022-08-01T01:39:02;3.53;;;3.10;;
553;SDS011;59;48.778;9.156;2022-08-01T01:41:28;3.77;;;3.37;;
553;SDS011;59;48.778;9.156;2022-08-01T01:43:54;3.60;;;3.40;;
553;SDS011;59;48.778;9.156;2022-08-01T01:46:21;3.87;;;3.30;;
553;SDS011;59;48.778;9.156;2022-08-01T01:48:48;3.77;;;3.30;;
553;SDS011;59;48.778;9.156;2022-08-01T01:51:15;4.30;;;3.30;;
553;SDS011;59;48.778;9.156;2022-08-01T01:53:41;4.00;;;3.27;;
553;SDS011;59;48.778;9.156;2022-08-01T01:56:08;3.40;;;3.20;;
553;SDS011;59;48.778;9.156;2022-08-01T01:58:35;3.93;;;3.07;;
553;SDS011;59;48.778;9.156;2022-08-01T02:01:02;3.47;;;3.17;;
553;SDS011;59;48.778;9.156;2022-08-01T02:03:28;3.63;;;3.20;;
553;SDS011;59;48.778;9.156;2022-08-01T02:05:56;3.73;;;3.57;;
553;SDS011;59;48.778;9.156;2022-08-01T02:08:22;4.77;;;3.40;;
553;SDS011;59;48.778;9.156;2022-08-01T02:10:50;3.60;;;3.03;;
553;SDS011;59;48.778;9.156;2022-08-01T02:13:36;3.90;;;3.40;;
553;SDS011;59;48.778;9.156;2022-08-01T02:16:03;3.30;;;3.10;;
553;SDS011;59;48.778;9.156;2022-08-01T02:18:29;3.90;;;3.40;;
553;SDS011;59;48.778;9.156;2022-08-01T02:20:55;5.23;;;3.57;;
553;SDS011;59;48.778;9.156;2022-08-01T02:23:21;4.10;;;3.47;;
553;SDS011;59;48.778;9.156;2022-08-01T02:25:49;3.63;;;3.23;;
553;SDS011;59;48.778;9.156;2022-08-01T02:28:20;4.70;;;3.40;;
553;SDS011;59;48.778;9.156;2022-08-01T02:30:52;3.60;;;3.40;;
553;SDS011;59;48.778;9.156;2022-08-01T02:33:19;3.33;;;3.17;;
553;SDS011;59;48.778;9.156;2022-08-01T02:35:48;6.30;;;3.60;;
553;SDS011;59;48.778;9.156;2022-08-01T02:38:16;4.00;;;3.20;;
553;SDS011;59;48.778;9.156;2022-08-01T02:40:43;3.27;;;3.10;;
553;SDS011;59;48.778;9.156;2022-08-01T02:43:11;4.00;;;3.40;;
553;SDS011;59;48.778;9.156;2022-08-01T02:45:39;3.30;;;3.10;;
553;SDS011;59;48.778;9.156;2022-08-01T02:48:09;3.43;;;3.17;;
553;SDS011;59;48.778;9.156;2022-08-01T02:50:35;3.73;;;3.60;;
553;SDS011;59;48.778;9.156;2022-08-01T02:53:01;3.67;;;3.47;;
553;SDS011;59;48.778;9.156;2022-08-01T02:55:28;4.73;;;3.40;;
553;SDS011;59;48.778;9.156;2022-08-01T02:57:54;3.33;;;3.20;;
553;SDS011;59;48.778;9.156;2022-08-01T03:00:20;3.73;;;3.27;;
553;SDS011;59;48.778;9.156;2022-08-01T03:02:47;4.43;;;3.87;;
553;SDS011;59;48.778;9.156;2022-08-01T03:05:15;4.07;;;3.70;;
553;SDS011;59;48.778;9.156;2022-08-01T03:07:42;4.17;;;3.93;;
553;SDS011;59;48.778;9.156;2022-08-01T03:10:08;3.50;;;3.30;;
553;SDS011;59;48.778;9.156;2022-08-01T03:12:35;4.00;;;3.40;;
553;SDS011;59;48.778;9.156;2022-08-01T03:17:34;3.50;;;3.30;;
553;SDS011;59;48.778;9.156;2022-08-01T03:20:06;3.43;;;3.30;;
553;SDS011;59;48.778;9.156;2022-08-01T03:22:33;3.33;;;3.10;;
553;SDS011;59;48.778;9.156;2022-08-01T03:25:00;3.33;;;3.10;;
553;SDS011;59;48.778;9.156;2022-08-01T03:27:28;3.83;;;3.40;;
553;SDS011;59;48.778;9.156;2022-08-01T03:29:54;3.27;;;3.13;;
553;SDS011;59;48.778;9.156;2022-08-01T03:32:22;5.17;;;3.47;;
553;SDS011;59;48.778;9.156;2022-08-01T03:34:48;3.60;;;3.40;;
553;SDS011;59;48.778;9.156;2022-08-01T03:37:21;3.83;;;2.83;;
553;SDS011;59;48.778;9.156;2022-08-01T03:40:03;3.87;;;3.40;;
553;SDS011;59;48.778;9.156;2022-08-01T03:42:43;4.63;;;3.07;;
553;SDS011;59;48.778;9.156;2022-08-01T03:45:11;3.30;;;3.10;;
553;SDS011;59;48.778;9.156;2022-08-01T03:47:44;3.67;;;2.90;;
553;SDS011;59;48.778;9.156;2022-08-01T03:50:12;3.50;;;3.30;;
553;SDS011;59;48.778;9.156;2022-08-01T03:52:39;3.80;;;3.30;;
553;SDS011;59;48.778;9.156;2022-08-01T03:55:08;4.30;;;3.53;;
553;SDS011;59;48.778;9.156;2022-08-01T03:57:35;5.03;;;3.40;;
553;SDS011;59;48.778;9.156;2022-08-01T04:00:02;3.47;;;3.30;;
553;SDS011;59;48.778;9.156;2022-08-01T04:02:31;4.03;;;3.47;;
553;SDS011;59;48.778;9.156;2022-08-01T04:04:58;4.23;;;3.60;;
553;SDS011;59;48.778;9.156;2022-08-01T04:07:26;3.73;;;3.30;;
553;SDS011;59;48.778;9.156;2022-08-01T04:09:53;3.47;;;3.27;;
553;SDS011;59;48.778;9.156;2022-08-01T04:12:20;4.00;;;3.30;;
553;SDS011;59;48.778;9.156;2022-08-01T04:14:47;3.70;;;3.10;;
553;SDS011;59;48.778;9.156;2022-08-01T04:17:15;3.33;;;3.20;;
553;SDS011;59;48.778;9.156;2022-08-01T04:19:41;4.07;;;3.27;;
553;SDS011;59;48.778;9.156;2022-08-01T04:22:07;4.30;;;3.40;;
553;SDS011;59;48.778;9.156;2022-08-01T04:24:34;3.97;;;2.93;;
553;SDS011;59;48.778;9.156;2022-08-01T04:27:02;5.83;;;3.17;;
553;SDS011;59;48.778;9.156;2022-08-01T04:29:30;3.73;;;3.10;;
553;SDS011;59;48.778;9.156;2022-08-01T04:34:26;3.00;;;2.80;;
553;SDS011;59;48.778;9.156;2022-08-01T04:36:54;4.47;;;2.87;;
553;SDS011;59;48.778;9.156;2022-08-01T04:39:25;4.27;;;3.20;;
553;SDS011;59;48.778;9.156;2022-08-01T04:41:52;4.17;;;3.33;;
553;SDS011;59;48.778;9.156;2022-08-01T04:44:22;3.50;;;3.30;;
553;SDS011;59;48.778;9.156;2022-08-01T04:46:51;5.40;;;3.40;;
553;SDS011;59;48.778;9.156;2022-08-01T04:49:20;4.37;;;2.87;;
553;SDS011;59;48.778;9.156;2022-08-01T04:51:50;3.10;;;2.90;;
553;SDS011;59;48.778;9.156;2022-08-01T04:54:17;4.90;;;3.20;;
553;SDS011;59;48.778;9.156;2022-08-01T04:56:45;3.10;;;2.70;;
553;SDS011;59;48.778;9.156;2022-08-01T04:59:11;3.40;;;2.87;;
553;SDS011;59;48.778;9.156;2022-08-01T05:01:56;4.60;;;3.37;;
553;SDS011;59;48.778;9.156;2022-08-01T05:04:22;3.93;;;2.70;;
553;SDS011;59;48.778;9.156;2022-08-01T05:06:49;3.80;;;2.73;;
553;SDS011;59;48.778;9.156;2022-08-01T05:09:14;3.40;;;2.93;;
553;SDS011;59;48.778;9.156;2022-08-01T05:11:41;5.00;;;2.90;;
553;SDS011;59;48.778;9.156;2022-08-01T05:14:07;5.10;;;3.97;;
553;SDS011;59;48.778;9.156;2022-08-01T05:16:34;4.27;;;4.03;;
553;SDS011;59;48.778;9.156;2022-08-01T05:19:00;5.73;;;4.40;;
553;SDS011;59;48.778;9.156;2022-08-01T05:21:28;4.53;;;3.77;;
553;SDS011;59;48.778;9.156;2022-08-01T05:23:55;3.90;;;3.53;;
553;SDS011;59;48.778;9.156;2022-08-01T05:26:21;4.93;;;3.30;;
553;SDS011;59;48.778;9.156;2022-08-01T05:28:47;3.13;;;2.80;;
553;SDS011;59;48.778;9.156;2022-08-01T05:31:16;3.17;;;2.50;;
553;SDS011;59;48.778;9.156;2022-08-01T05:33:42;3.90;;;2.53;;
553;SDS011;59;48.778;9.156;2022-08-01T05:36:08;3.17;;;2.83;;
553;SDS011;59;48.778;9.156;2022-08-01T05:38:36;2.83;;;2.57;;
553;SDS011;59;48.778;9.156;2022-08-01T05:41:02;3.20;;;2.53;;
553;SDS011;59;48.778;9.156;2022-08-01T05:43:29;2.47;;;2.27;;
553;SDS011;59;48.778;9.156;2022-08-01T05:45:56;2.60;;;2.50;;
553;SDS011;59;48.778;9.156;2022-08-01T05:48:23;2.80;;;2.37;;
553;SDS011;59;48.778;9.156;2022-08-01T05:50:49;3.57;;;2.60;;
553;SDS011;59;48.778;9.156;2022-08-01T05:53:16;2.83;;;2.57;;
553;SDS011;59;48.778;9.156;2022-08-01T05:55:42;2.40;;;2.20;;
553;SDS011;59;48.778;9.156;2022-08-01T05:58:09;2.03;;;1.90;;
553;SDS011;59;48.778;9.156;2022-08-01T06:00:34;4.10;;;3.00;;
553;SDS011;59;48.778;9.156;2022-08-01T06:03:00;2.87;;;2.30;;
553;SDS011;59;48.778;9.156;2022-08-01T06:05:27;2.93;;;2.70;;
